createdAt,value
2022-08-19T00:09:41.640Z,91
2022-08-19T00:19:42.016Z,92
2022-08-19T00:29:42.278Z,92
2022-08-19T00:39:43.018Z,92
2022-08-19T00:49:43.761Z,93
2022-08-19T00:59:53.835Z,93
2022-08-19T01:09:45.080Z,93
2022-08-19T01:19:45.356Z,94
2022-08-19T01:29:45.639Z,94
2022-08-19T01:39:46.159Z,94
2022-08-19T01:49:46.505Z,94
2022-08-19T01:59:46.684Z,94
2022-08-19T02:09:47.141Z,95
2022-08-19T02:19:47.647Z,95
2022-08-19T02:29:48.036Z,95
2022-08-19T02:39:48.853Z,95
2022-08-19T02:49:49.836Z,95
2022-08-19T02:59:50.359Z,95
2022-08-19T03:09:50.906Z,96
2022-08-19T03:19:51.210Z,96
2022-08-19T03:29:51.485Z,96
2022-08-19T03:39:52.131Z,96
2022-08-19T03:49:52.507Z,96
2022-08-19T03:59:53.083Z,96
2022-08-19T04:09:53.337Z,96
2022-08-19T04:19:54.058Z,97
2022-08-19T04:29:55.122Z,97
2022-08-19T04:39:57.870Z,97
2022-08-19T04:49:56.744Z,97
2022-08-19T04:59:57.756Z,97
2022-08-19T05:09:59.160Z,97
2022-08-19T05:19:58.856Z,97
2022-08-19T05:29:58.943Z,97
2022-08-19T05:39:59.292Z,97
2022-08-19T06:00:00.346Z,96
2022-08-19T06:10:01.560Z,96
2022-08-19T06:20:01.421Z,95
2022-08-19T06:30:02.020Z,95
2022-08-19T06:40:03.132Z,95
2022-08-19T06:50:03.899Z,94
2022-08-19T07:00:04.713Z,92
2022-08-19T07:10:06.154Z,91
2022-08-19T07:20:07.120Z,90
2022-08-19T07:30:06.659Z,89
2022-08-19T07:40:07.010Z,87
2022-08-19T07:50:08.081Z,85
2022-08-19T08:00:08.557Z,83
2022-08-19T08:10:12.733Z,83
2022-08-19T08:20:09.399Z,81
2022-08-19T08:30:10.461Z,81
2022-08-19T08:40:13.023Z,80
2022-08-19T09:00:11.008Z,74
2022-08-19T09:10:11.829Z,72
2022-08-19T09:20:12.697Z,71
2022-08-19T09:30:13.683Z,71
2022-08-19T09:40:15.384Z,69
2022-08-19T09:50:16.457Z,67
2022-08-19T10:00:20.942Z,67
2022-08-19T10:10:21.985Z,66
2022-08-19T10:20:22.471Z,67
2022-08-19T10:30:22.724Z,67
2022-08-19T10:40:23.585Z,64
2022-08-19T10:50:28.584Z,63
2022-08-19T11:00:25.182Z,62
2022-08-19T11:10:26.222Z,63
2022-08-19T11:20:26.364Z,62
2022-08-19T11:30:26.703Z,59
2022-08-19T11:40:27.893Z,60
2022-08-19T11:50:28.152Z,57
2022-08-19T12:00:28.995Z,57
2022-08-19T12:10:30.057Z,56
2022-08-19T12:20:30.815Z,55
2022-08-19T12:30:31.108Z,54
2022-08-19T12:40:31.759Z,53
2022-08-19T12:50:32.249Z,52
2022-08-19T13:00:33.277Z,50
2022-08-19T13:10:33.601Z,49
2022-08-19T13:20:34.563Z,46
2022-08-19T13:30:35.225Z,48
2022-08-19T13:40:36.220Z,49
2022-08-19T13:50:36.402Z,47
2022-08-19T14:00:37.371Z,47
2022-08-19T14:10:37.635Z,45
2022-08-19T14:20:38.099Z,48
2022-08-19T14:30:39.182Z,49
2022-08-19T14:40:39.720Z,46
2022-08-19T14:50:40.162Z,45
2022-08-19T15:00:41.177Z,45
2022-08-19T15:10:41.356Z,47
2022-08-19T15:20:42.066Z,46
2022-08-19T15:30:42.828Z,48
2022-08-19T15:40:43.289Z,48
2022-08-19T16:00:43.801Z,45
2022-08-19T16:10:44.842Z,45
2022-08-19T16:20:45.905Z,45
2022-08-19T16:30:48.379Z,48
2022-08-19T16:40:46.843Z,49
2022-08-19T16:50:49.385Z,50
2022-08-19T17:00:46.900Z,51
2022-08-19T17:11:02.072Z,52
2022-08-19T17:20:48.364Z,53
2022-08-19T17:30:49.469Z,53
2022-08-19T17:40:50.011Z,54
2022-08-19T17:50:50.238Z,55
2022-08-19T18:00:53.425Z,57
2022-08-19T18:10:51.210Z,58
2022-08-19T18:20:52.096Z,59
2022-08-19T18:30:52.952Z,61
2022-08-19T18:50:53.595Z,66
2022-08-19T19:00:54.062Z,68
2022-08-19T19:10:54.935Z,69
2022-08-19T19:20:55.789Z,71
2022-08-19T19:30:56.644Z,72
2022-08-19T19:40:57.720Z,73
2022-08-19T19:50:58.148Z,74
2022-08-19T20:00:58.633Z,75
2022-08-19T20:10:59.137Z,75
2022-08-19T20:20:59.406Z,76
2022-08-19T20:30:59.794Z,77
2022-08-19T20:41:00.185Z,77
2022-08-19T20:51:00.343Z,77
2022-08-19T21:01:01.311Z,78
2022-08-19T21:11:01.676Z,79
2022-08-19T21:21:02.135Z,79
2022-08-19T21:51:04.068Z,81
2022-08-19T22:01:04.616Z,81
2022-08-19T22:11:05.385Z,82
2022-08-19T22:21:09.576Z,82
2022-08-19T22:31:06.384Z,83
2022-08-19T22:51:07.108Z,84
2022-08-19T23:01:08.062Z,85
2022-08-19T23:11:08.525Z,85
2022-08-19T23:21:08.966Z,86
2022-08-19T23:31:09.671Z,87
2022-08-19T23:41:10.425Z,87
2022-08-19T23:51:10.798Z,88
